Time;durP1;ratioP1;P1;durP2;ratioP2;P2;SDS_P1;SDS_P2;PMS_P1;PMS_P2;Temp;Humidity;BMP_temperature;BMP_pressure;BME280_temperature;BME280_humidity;BME280_pressure;Samples;Min_cycle;Max_cycle;Signal;HPM_P1;HPM_P2
2022/10/12 00:00:43;;;;;;;6.53;4.97;;;;;;;18.60;50.60;102528.63;5146470;27;20447;-56
2022/10/12 00:03:10;;;;;;;5.75;4.70;;;;;;;18.60;50.59;102539.41;5146672;27;20036;-57
2022/10/12 00:05:36;;;;;;;9.10;5.47;;;;;;;18.59;50.66;102537.69;5135282;27;20035;-57
2022/10/12 00:08:01;;;;;;;6.80;5.07;;;;;;;18.58;50.44;102530.59;5146704;27;20027;-58
2022/10/12 00:10:26;;;;;;;6.85;4.95;;;;;;;18.58;50.34;102530.59;5146588;27;20022;-61
2022/10/12 00:12:51;;;;;;;6.35;5.07;;;;;;;18.58;50.24;102529.75;5146294;27;20113;-56
2022/10/12 00:15:17;;;;;;;6.65;5.30;;;;;;;18.57;50.51;102526.19;5146588;27;20027;-57
2022/10/12 00:17:42;;;;;;;5.90;4.72;;;;;;;18.57;50.28;102525.34;5146261;27;20019;-56
2022/10/12 00:20:08;;;;;;;7.57;5.45;;;;;;;18.55;50.49;102525.47;5145898;27;20433;-57
2022/10/12 00:22:33;;;;;;;5.35;4.75;;;;;;;18.55;50.24;102527.31;5144312;27;20058;-58
2022/10/12 00:24:58;;;;;;;8.80;5.43;;;;;;;18.54;50.28;102530.97;5146386;27;20073;-58
2022/10/12 00:27:23;;;;;;;6.35;5.03;;;;;;;18.53;50.20;102527.44;5144775;27;20023;-57
2022/10/12 00:29:49;;;;;;;6.38;4.57;;;;;;;18.48;50.13;102522.44;5145671;27;20028;-57
2022/10/12 00:32:14;;;;;;;5.38;4.70;;;;;;;18.52;49.84;102527.53;5146256;27;20019;-56
2022/10/12 00:34:39;;;;;;;7.85;5.40;;;;;;;18.51;50.39;102526.69;5142155;27;20038;-55
2022/10/12 00:37:05;;;;;;;5.85;4.78;;;;;;;18.50;50.02;102527.69;5124692;28;20118;-58
2022/10/12 00:39:30;;;;;;;5.60;4.30;;;;;;;18.42;50.12;102514.84;5125346;28;20027;-58
2022/10/12 00:41:55;;;;;;;6.63;5.00;;;;;;;18.48;49.94;102517.03;5124992;28;20011;-57
2022/10/12 00:44:40;;;;;;;5.80;4.53;;;;;;;18.47;50.19;102509.94;5125304;28;20034;-55
2022/10/12 00:47:12;;;;;;;5.57;4.90;;;;;;;18.46;50.47;102521.69;5125623;28;20035;-57
2022/10/12 00:49:37;;;;;;;5.85;4.68;;;;;;;18.46;50.08;102518.16;5123409;28;20054;-55
2022/10/12 00:52:06;;;;;;;6.22;4.20;;;;;;;18.44;50.20;102529.06;5125150;28;20027;-57
2022/10/12 00:54:35;;;;;;;6.93;5.40;;;;;;;18.45;49.92;102540.69;5123501;28;20137;-57
2022/10/12 00:57:02;;;;;;;7.00;5.03;;;;;;;18.42;50.20;102531.00;5125131;28;20095;-58
2022/10/12 00:59:31;;;;;;;6.28;4.20;;;;;;;18.40;50.33;102527.59;5123381;28;20030;-56
2022/10/12 01:01:56;;;;;;;;;;;;;;;18.41;50.24;102520.38;5124085;28;20041;-56
2022/10/12 01:04:23;;;;;;;6.50;4.90;;;;;;;18.35;50.19;102518.16;5123405;28;19911;-56
2022/10/12 01:06:48;;;;;;;5.47;4.68;;;;;;;18.33;50.14;102512.06;5128578;27;20031;-57
2022/10/12 01:09:14;;;;;;;4.97;4.40;;;;;;;18.38;50.01;102531.38;5124888;28;20027;-57
2022/10/12 01:11:39;;;;;;;5.85;4.38;;;;;;;18.37;50.12;102525.16;5123275;28;20038;-57
2022/10/12 01:14:04;;;;;;;4.65;4.10;;;;;;;18.35;50.03;102521.72;5136609;27;20031;-58
2022/10/12 01:16:45;;;;;;;6.38;4.53;;;;;;;18.36;50.10;102522.59;5145442;27;20023;-57
2022/10/12 01:19:22;;;;;;;5.43;4.53;;;;;;;18.35;49.99;102520.84;5144891;27;20033;-58
2022/10/12 01:21:54;;;;;;;7.70;4.25;;;;;;;18.34;50.25;102511.91;5145132;27;20036;-54
2022/10/12 01:24:25;;;;;;;5.57;4.15;;;;;;;18.34;50.24;102513.75;5144169;27;20053;-57
2022/10/12 01:27:01;;;;;;;6.50;4.50;;;;;;;18.32;50.17;102516.59;5145253;27;20034;-57
2022/10/12 01:29:36;;;;;;;6.93;4.55;;;;;;;18.33;50.12;102517.44;5145124;27;20027;-58
2022/10/12 01:32:10;;;;;;;4.95;4.13;;;;;;;18.31;50.25;102511.31;5145045;27;20031;-57
2022/10/12 01:34:52;;;;;;;4.93;3.80;;;;;;;18.31;49.98;102511.31;5142617;27;20023;-57
2022/10/12 01:37:38;;;;;;;4.93;4.07;;;;;;;18.30;49.91;102513.16;5132281;27;20123;-58
2022/10/12 01:40:06;;;;;;;5.22;3.65;;;;;;;18.28;49.98;102514.28;5122820;28;20042;-58
2022/10/12 01:42:36;;;;;;;4.05;3.50;;;;;;;18.28;50.11;102503.50;5124192;27;20066;-58
2022/10/12 01:45:14;;;;;;;5.47;4.20;;;;;;;18.27;49.94;102505.34;5123049;28;20055;-58
2022/10/12 01:47:40;;;;;;;4.33;3.73;;;;;;;18.26;49.92;102497.38;5124173;27;20027;-56
2022/10/12 01:50:09;;;;;;;5.20;4.10;;;;;;;18.26;50.18;102500.91;5122291;28;20268;-56
2022/10/12 01:52:39;;;;;;;;;;;;;;;18.26;49.92;102497.38;5124430;28;20036;-58
2022/10/12 01:55:17;;;;;;;5.22;3.80;;;;;;;18.23;50.07;102502.06;5123091;28;19911;-57
2022/10/12 01:58:06;;;;;;;4.40;3.70;;;;;;;18.22;50.17;102496.78;5124196;28;20034;-58
2022/10/12 02:00:42;;;;;;;4.25;3.53;;;;;;;18.22;49.85;102494.97;5123781;28;20051;-58
2022/10/12 02:03:45;;;;;;;5.82;3.97;;;;;;;18.20;49.80;102480.75;5122922;28;20050;-58
2022/10/12 02:06:17;;;;;;;5.05;3.97;;;;;;;18.11;50.10;102476.13;5129654;28;20088;-58
2022/10/12 02:09:25;;;;;;;4.00;3.58;;;;;;;18.20;49.78;102488.81;5143575;28;20023;-58
2022/10/12 02:11:52;;;;;;;5.43;3.53;;;;;;;18.19;49.95;102487.13;5080451;28;20036;-58
2022/10/12 02:14:20;;;;;;;5.47;4.20;;;;;;;18.07;49.84;102463.03;5093813;28;20082;-57
2022/10/12 02:16:54;;;;;;;4.35;3.63;;;;;;;18.18;49.71;102481.84;5100575;28;20036;-58
2022/10/12 02:19:24;;;;;;;3.55;3.22;;;;;;;18.18;50.07;102481.84;5083829;28;20081;-57
2022/10/12 02:21:50;;;;;;;4.20;3.63;;;;;;;18.16;49.72;102481.97;5083385;28;20095;-57
2022/10/12 02:24:17;;;;;;;4.68;4.03;;;;;;;18.13;49.93;102476.84;5084151;28;20089;-57
2022/10/12 02:26:43;;;;;;;5.95;3.83;;;;;;;18.16;49.93;102475.75;5083774;28;20034;-55
2022/10/12 02:29:13;;;;;;;3.90;3.40;;;;;;;18.06;49.94;102456.81;5083461;28;20068;-57
2022/10/12 02:31:46;;;;;;;4.43;3.78;;;;;;;18.15;49.93;102472.19;5083652;28;20062;-58
2022/10/12 02:34:17;;;;;;;4.30;3.63;;;;;;;18.14;49.69;102470.50;5098321;28;20119;-57
2022/10/12 02:36:49;;;;;;;4.05;3.08;;;;;;;18.14;49.88;102464.25;5043818;28;20041;-57
2022/10/12 02:39:19;;;;;;;3.97;3.53;;;;;;;18.13;49.74;102460.69;5063054;28;20049;-57
2022/10/12 02:41:48;;;;;;;3.55;3.08;;;;;;;18.13;49.65;102465.22;5087555;28;20044;-58
2022/10/12 02:44:16;;;;;;;5.53;3.60;;;;;;;18.08;49.70;102449.44;5122502;28;20042;-58
2022/10/12 02:46:42;;;;;;;4.97;3.40;;;;;;;18.08;49.66;102451.28;5122498;28;20046;-58
2022/10/12 02:49:08;;;;;;;5.55;3.72;;;;;;;18.11;49.72;102451.06;5123195;28;20092;-58
2022/10/12 02:51:34;;;;;;;3.63;3.15;;;;;;;18.10;49.69;102457.41;5123408;28;20023;-58
2022/10/12 02:53:59;;;;;;;4.05;3.10;;;;;;;18.10;49.77;102454.72;5122233;28;20048;-55
2022/10/12 02:56:25;;;;;;;5.20;3.20;;;;;;;18.07;49.91;102447.75;5123588;28;20035;-57
2022/10/12 02:58:50;;;;;;;4.40;3.45;;;;;;;18.08;49.73;102444.06;5123259;28;20023;-58
2022/10/12 03:01:16;;;;;;;3.20;2.90;;;;;;;18.07;49.70;102442.38;5124648;28;20102;-58
2022/10/12 03:03:42;;;;;;;4.80;3.35;;;;;;;18.07;49.93;102446.91;5127056;28;20479;-57
2022/10/12 03:06:07;;;;;;;3.70;3.00;;;;;;;18.05;49.87;102443.47;5146354;27;20034;-58
2022/10/12 03:08:33;;;;;;;3.50;3.17;;;;;;;18.05;49.61;102438.06;5147992;27;20031;-58
2022/10/12 03:11:03;;;;;;;4.43;3.25;;;;;;;18.04;49.90;102439.91;5146289;27;20027;-58
2022/10/12 03:13:28;;;;;;;7.05;3.20;;;;;;;18.04;49.33;102437.22;5147587;27;20027;-58
2022/10/12 03:16:00;;;;;;;3.63;2.80;;;;;;;18.03;49.81;102435.53;5147713;27;20034;-58
2022/10/12 03:18:25;;;;;;;5.25;3.35;;;;;;;18.02;49.67;102425.75;5147477;27;20027;-58
2022/10/12 03:20:51;;;;;;;3.17;2.85;;;;;;;18.01;49.69;102426.75;5146990;27;20042;-58
2022/10/12 03:23:16;;;;;;;4.85;3.25;;;;;;;18.01;49.58;102426.75;5147726;27;20029;-58
2022/10/12 03:25:41;;;;;;;4.22;3.10;;;;;;;18.00;49.65;102425.00;5147485;27;20030;-58
2022/10/12 03:28:06;;;;;;;4.07;2.83;;;;;;;17.97;49.70;102422.59;5147254;27;20052;-58
2022/10/12 03:30:32;;;;;;;4.00;3.10;;;;;;;17.94;49.75;102428.22;5147023;27;20058;-58
2022/10/12 03:32:57;;;;;;;3.97;3.33;;;;;;;17.97;49.86;102428.81;5147200;27;20050;-58
2022/10/12 03:35:22;;;;;;;4.30;3.15;;;;;;;17.97;49.81;102428.81;5133863;27;20057;-57
2022/10/12 03:37:47;;;;;;;3.47;2.75;;;;;;;17.97;49.63;102428.81;5128251;27;20038;-58
2022/10/12 03:40:13;;;;;;;4.75;3.25;;;;;;;17.95;50.00;102428.06;5137389;27;20051;-54
2022/10/12 03:42:38;;;;;;;5.45;3.15;;;;;;;17.96;49.77;102421.69;5130134;27;20023;-57
2022/10/12 03:45:04;;;;;;;4.80;2.90;;;;;;;17.95;50.06;102421.84;5126127;27;20035;-54
2022/10/12 03:47:29;;;;;;;3.25;2.95;;;;;;;17.95;50.00;102428.06;5126256;28;20387;-56
2022/10/12 03:49:54;;;;;;;3.85;3.05;;;;;;;17.95;50.13;102422.69;5125528;27;20038;-57
2022/10/12 03:52:19;;;;;;;4.72;3.08;;;;;;;17.95;49.95;102419.16;5126053;28;20556;-56
2022/10/12 03:54:44;;;;;;;3.30;3.00;;;;;;;17.95;49.95;102428.06;5126190;28;20031;-54
2022/10/12 03:57:10;;;;;;;3.38;2.83;;;;;;;17.96;50.05;102420.84;5122758;27;20031;-56
2022/10/12 03:59:35;;;;;;;3.83;2.95;;;;;;;17.96;49.87;102420.84;5126076;28;20024;-52
2022/10/12 04:02:00;;;;;;;4.75;3.25;;;;;;;17.96;49.70;102420.84;5126092;28;20031;-55
2022/10/12 04:04:26;;;;;;;3.20;2.75;;;;;;;17.92;49.81;102414.00;5126093;27;20579;-56
2022/10/12 04:06:51;;;;;;;3.88;2.90;;;;;;;17.85;49.93;102399.38;5126126;27;20037;-56
2022/10/12 04:09:17;;;;;;;3.08;2.60;;;;;;;17.86;49.64;102410.00;5126000;28;20097;-56
2022/10/12 04:11:42;;;;;;;3.70;2.53;;;;;;;17.92;49.69;102425.63;5125190;28;20047;-55
2022/10/12 04:14:07;;;;;;;4.30;2.80;;;;;;;17.90;49.83;102422.22;5136829;27;20023;-54
2022/10/12 04:16:32;;;;;;;4.00;2.97;;;;;;;17.85;49.66;102407.44;5143528;27;20057;-53
2022/10/12 04:18:58;;;;;;;3.63;2.83;;;;;;;17.83;49.84;102414.75;5137642;27;20023;-54
2022/10/12 04:21:23;;;;;;;3.65;2.90;;;;;;;17.82;49.75;102405.84;5145851;27;20031;-55
2022/10/12 04:23:48;;;;;;;3.53;2.90;;;;;;;17.90;49.58;102418.69;5146220;27;20034;-56
2022/10/12 04:26:14;;;;;;;2.78;2.40;;;;;;;17.89;49.64;102415.13;5145550;27;20688;-56
2022/10/12 04:28:39;;;;;;;4.45;3.13;;;;;;;17.88;49.54;102415.22;5145521;27;20026;-55
2022/10/12 04:31:04;;;;;;;3.50;3.20;;;;;;;17.87;49.57;102419.75;5145894;27;20019;-56
2022/10/12 04:33:29;;;;;;;3.88;3.03;;;;;;;17.87;49.73;102419.75;5144839;27;20072;-56
2022/10/12 04:35:55;;;;;;;2.90;2.25;;;;;;;17.87;49.46;102422.47;5144760;27;20050;-56
2022/10/12 04:38:20;;;;;;;3.78;2.80;;;;;;;17.80;49.56;102413.19;5146132;27;20027;-55
2022/10/12 04:40:46;;;;;;;3.55;2.38;;;;;;;17.87;49.79;102421.59;5129146;27;20384;-56
2022/10/12 04:43:12;;;;;;;3.65;2.50;;;;;;;17.86;49.60;102419.91;5129406;27;20160;-54
2022/10/12 04:45:37;;;;;;;3.17;2.35;;;;;;;17.86;49.65;102414.53;5142277;27;20023;-56
2022/10/12 04:48:03;;;;;;;4.40;2.72;;;;;;;17.85;49.72;102421.75;5145788;27;20380;-55
2022/10/12 04:50:28;;;;;;;3.15;2.80;;;;;;;17.85;49.85;102420.88;5144585;27;20023;-56
2022/10/12 04:52:53;;;;;;;3.83;2.70;;;;;;;17.85;49.74;102420.88;5142123;27;20500;-53
2022/10/12 04:55:18;;;;;;;3.03;2.47;;;;;;;17.85;49.66;102419.06;5135402;27;20023;-55
2022/10/12 04:57:43;;;;;;;3.30;2.67;;;;;;;17.85;49.68;102426.28;5134282;27;20023;-53
2022/10/12 05:00:09;;;;;;;3.10;2.65;;;;;;;17.81;49.73;102414.91;5133285;27;20031;-55
2022/10/12 05:02:34;;;;;;;3.83;2.45;;;;;;;17.84;49.89;102417.34;5135845;27;20019;-56
2022/10/12 05:05:00;;;;;;;3.20;2.25;;;;;;;17.84;49.66;102425.41;5132419;27;20038;-54
2022/10/12 05:07:25;;;;;;;3.90;2.17;;;;;;;17.82;49.82;102418.44;5131927;27;20019;-57
2022/10/12 05:09:50;;;;;;;3.88;2.88;;;;;;;17.83;49.94;102415.63;5132474;27;20049;-53
2022/10/12 05:12:16;;;;;;;3.47;2.42;;;;;;;17.78;49.91;102412.44;5134936;27;20082;-57
2022/10/12 05:14:43;;;;;;;2.42;2.10;;;;;;;17.82;49.64;102416.59;5132586;27;20019;-55
2022/10/12 05:17:08;;;;;;;3.25;2.67;;;;;;;17.82;49.71;102416.59;5133415;27;20024;-52
2022/10/12 05:19:33;;;;;;;2.50;2.30;;;;;;;17.81;49.74;102420.28;5133636;27;20485;-55
2022/10/12 05:21:59;;;;;;;2.97;2.58;;;;;;;17.83;49.66;102422.84;5133993;27;20031;-56
2022/10/12 05:24:24;;;;;;;4.70;2.75;;;;;;;17.81;49.69;102417.59;5133888;27;20088;-56
2022/10/12 05:26:49;;;;;;;2.83;2.22;;;;;;;17.81;50.00;102419.44;5133606;27;20028;-55
2022/10/12 05:29:14;;;;;;;3.40;2.53;;;;;;;17.80;49.97;102409.63;5133322;27;20055;-56
2022/10/12 05:31:40;;;;;;;3.20;2.55;;;;;;;17.81;49.89;102417.59;5135053;27;20030;-56
2022/10/12 05:34:05;;;;;;;4.15;2.80;;;;;;;17.80;49.91;102410.50;5132518;27;20045;-52
2022/10/12 05:36:30;;;;;;;2.97;2.25;;;;;;;17.77;49.81;102396.44;5134120;27;20146;-55
2022/10/12 05:38:55;;;;;;;2.90;2.35;;;;;;;17.81;49.78;102414.03;5133509;27;20024;-53
2022/10/12 05:41:21;;;;;;;3.00;2.08;;;;;;;17.79;49.89;102411.47;5131895;27;20087;-57
2022/10/12 05:43:46;;;;;;;3.58;2.70;;;;;;;17.68;49.88;102393.47;5134913;27;20019;-56
2022/10/12 05:46:11;;;;;;;3.45;2.92;;;;;;;17.78;49.89;102412.44;5134224;27;20049;-55
2022/10/12 05:48:37;;;;;;;3.00;2.38;;;;;;;17.79;50.02;102405.22;5125034;27;20036;-54
2022/10/12 05:51:02;;;;;;;3.45;2.53;;;;;;;17.79;49.99;102405.22;5128862;27;20023;-54
2022/10/12 05:53:27;;;;;;;2.85;2.35;;;;;;;17.77;49.92;102408.06;5144387;27;20043;-55
2022/10/12 05:55:59;;;;;;;3.15;2.42;;;;;;;17.77;49.77;102404.50;5144685;28;20058;-56
2022/10/12 05:58:26;;;;;;;3.60;2.53;;;;;;;17.76;49.85;102408.19;5138195;27;20045;-56
2022/10/12 06:00:51;;;;;;;3.35;2.38;;;;;;;17.75;49.58;102404.63;5134105;27;20015;-56
2022/10/12 06:03:17;;;;;;;5.75;2.20;;;;;;;17.74;49.95;102408.28;5134256;28;20015;-56
2022/10/12 06:05:43;;;;;;;3.08;2.45;;;;;;;17.74;49.81;102405.59;5133760;27;20024;-55
2022/10/12 06:08:09;;;;;;;2.63;2.15;;;;;;;17.72;49.75;102403.03;5134385;27;20031;-52
2022/10/12 06:10:35;;;;;;;3.83;2.20;;;;;;;17.73;49.65;102401.19;5133465;28;20024;-55
2022/10/12 06:13:01;;;;;;;3.30;2.20;;;;;;;17.72;49.55;102396.78;5130393;27;20027;-56
2022/10/12 06:15:26;;;;;;;2.85;1.80;;;;;;;17.70;49.81;102393.34;5144389;27;20090;-56
2022/10/12 06:17:51;;;;;;;4.72;2.80;;;;;;;17.73;49.74;102403.88;5144637;27;20038;-55
2022/10/12 06:20:16;;;;;;;3.22;2.30;;;;;;;17.63;49.66;102390.31;5143782;27;20023;-55
2022/10/12 06:22:42;;;;;;;2.80;2.30;;;;;;;17.73;49.94;102398.50;5144589;27;20031;-56
2022/10/12 06:25:07;;;;;;;2.70;1.83;;;;;;;17.74;49.49;102408.28;5144362;27;20114;-54
2022/10/12 06:27:33;;;;;;;2.20;2.00;;;;;;;17.74;49.39;102403.75;5144429;27;20031;-55
2022/10/12 06:29:58;;;;;;;2.90;2.22;;;;;;;17.76;49.31;102397.44;5144096;27;20037;-55
2022/10/12 06:32:23;;;;;;;3.65;2.50;;;;;;;17.76;49.46;102392.91;5144366;27;20069;-53
2022/10/12 06:34:49;;;;;;;3.65;3.05;;;;;;;17.76;49.45;102398.28;5144109;27;20035;-55
2022/10/12 06:37:14;;;;;;;2.40;2.00;;;;;;;17.76;49.27;102400.97;5148563;27;20019;-55
2022/10/12 06:39:39;;;;;;;2.90;2.50;;;;;;;17.76;49.17;102389.38;5141725;27;20027;-55
2022/10/12 06:42:06;;;;;;;2.65;2.30;;;;;;;17.77;49.41;102399.97;5127741;28;20666;-55
2022/10/12 06:44:31;;;;;;;3.30;2.50;;;;;;;17.62;49.17;102369.75;5135545;27;20105;-56
2022/10/12 06:46:57;;;;;;;4.03;2.40;;;;;;;17.79;49.08;102395.31;5148127;27;20035;-55
2022/10/12 06:49:22;;;;;;;2.90;2.60;;;;;;;17.76;49.34;102398.28;5131733;27;20481;-55
2022/10/12 06:51:47;;;;;;;3.45;2.50;;;;;;;17.80;49.01;102399.75;5127060;28;20032;-57
2022/10/12 06:54:12;;;;;;;2.90;2.15;;;;;;;17.81;49.13;102393.38;5127303;28;20044;-57
2022/10/12 06:56:38;;;;;;;2.53;2.30;;;;;;;17.83;49.14;102395.94;5127486;28;20033;-54
2022/10/12 06:59:04;;;;;;;5.28;2.10;;;;;;;17.84;49.14;102394.94;5127333;27;20079;-56
2022/10/12 07:01:29;;;;;;;2.90;2.60;;;;;;;17.85;48.94;102384.06;5126979;28;20035;-54
2022/10/12 07:03:54;;;;;;;3.83;2.47;;;;;;;17.86;48.94;102385.78;5127256;28;20584;-54
2022/10/12 07:06:20;;;;;;;2.90;2.40;;;;;;;17.86;48.88;102393.84;5134306;27;20445;-55
2022/10/12 07:08:45;;;;;;;2.17;1.92;;;;;;;17.86;48.89;102383.09;5146506;27;20023;-55
2022/10/12 07:11:11;;;;;;;3.47;2.70;;;;;;;17.87;48.67;102374.03;5147427;27;20048;-56
2022/10/12 07:13:37;;;;;;;2.50;2.30;;;;;;;17.86;48.75;102377.69;5134555;27;20031;-56
2022/10/12 07:16:03;;;;;;;2.28;1.95;;;;;;;17.87;48.80;102376.72;5127979;27;20027;-59
2022/10/12 07:18:28;;;;;;;2.65;2.30;;;;;;;17.88;48.85;102378.44;5143437;27;20019;-55
2022/10/12 07:20:56;;;;;;;3.53;2.53;;;;;;;17.89;48.93;102379.31;5133525;27;20016;-55
2022/10/12 07:23:21;;;;;;;3.63;2.47;;;;;;;17.87;48.78;102374.03;5126563;28;20024;-56
2022/10/12 07:25:48;;;;;;;2.63;2.40;;;;;;;17.89;48.91;102380.16;5139268;27;20027;-57
2022/10/12 07:28:14;;;;;;;3.70;2.58;;;;;;;17.90;48.78;102381.00;5129791;27;20057;-56
2022/10/12 07:30:39;;;;;;;4.55;2.50;;;;;;;17.91;49.13;102383.56;5129973;27;20512;-55
2022/10/12 07:33:04;;;;;;;2.90;2.30;;;;;;;17.93;49.02;102383.44;5139574;27;20076;-54
2022/10/12 07:35:30;;;;;;;2.70;2.50;;;;;;;17.93;48.60;102389.69;5136830;27;20026;-59
2022/10/12 07:37:55;;;;;;;3.05;2.55;;;;;;;17.94;48.88;102386.00;5132250;27;20071;-54
2022/10/12 07:40:20;;;;;;;3.40;2.50;;;;;;;17.93;48.82;102378.91;5132939;27;20053;-58
2022/10/12 07:42:45;;;;;;;3.28;2.53;;;;;;;17.96;48.79;102388.56;5142125;27;20045;-58
2022/10/12 07:45:11;;;;;;;7.03;2.50;;;;;;;17.95;48.86;102376.09;5131517;27;20059;-58
2022/10/12 07:47:36;;;;;;;3.38;2.35;;;;;;;17.96;48.89;102381.34;5127423;27;20027;-58
2022/10/12 07:50:01;;;;;;;4.50;2.95;;;;;;;17.97;48.86;102377.69;5128345;27;20027;-59
2022/10/12 07:52:27;;;;;;;3.20;2.70;;;;;;;17.98;49.03;102379.38;5142462;27;20122;-59
2022/10/12 07:54:52;;;;;;;3.05;2.17;;;;;;;17.98;49.08;102384.78;5131829;27;20027;-59
2022/10/12 07:57:18;;;;;;;2.63;1.98;;;;;;;18.00;49.15;102379.25;5137081;27;20028;-58
2022/10/12 07:59:43;;;;;;;4.40;2.60;;;;;;;18.02;49.24;102380.00;5132605;27;20027;-57
2022/10/12 08:02:10;;;;;;;4.80;2.63;;;;;;;18.05;48.99;102378.88;5142164;27;20023;-58
2022/10/12 08:04:36;;;;;;;4.28;2.20;;;;;;;18.07;49.26;102383.16;5127636;27;20509;-58
2022/10/12 08:07:01;;;;;;;2.45;2.22;;;;;;;18.09;49.12;102386.56;5146376;27;20052;-58
2022/10/12 08:09:26;;;;;;;5.03;3.40;;;;;;;18.12;48.69;102377.38;5135600;27;20024;-58
2022/10/12 08:11:51;;;;;;;3.90;2.63;;;;;;;18.13;48.54;102382.63;5139495;27;20038;-59
2022/10/12 08:14:16;;;;;;;3.05;2.70;;;;;;;18.16;49.14;102379.69;5137009;27;20026;-59
2022/10/12 08:16:43;;;;;;;3.13;2.45;;;;;;;18.18;48.93;102383.13;5133523;27;20059;-57
2022/10/12 08:19:08;;;;;;;6.03;2.40;;;;;;;18.21;48.89;102387.38;5137683;27;20024;-58
2022/10/12 08:21:34;;;;;;;3.85;2.42;;;;;;;18.20;48.80;102385.69;5136714;27;20037;-59
2022/10/12 08:23:59;;;;;;;3.20;2.50;;;;;;;18.24;48.88;102390.69;5130934;27;20023;-56
2022/10/12 08:26:24;;;;;;;4.18;2.47;;;;;;;18.25;48.85;102386.13;5142177;27;20088;-58
2022/10/12 08:28:49;;;;;;;2.60;2.17;;;;;;;18.25;49.04;102383.44;5130412;27;20482;-58
2022/10/12 08:31:16;;;;;;;2.80;2.25;;;;;;;18.31;49.08;102390.16;5136651;27;20110;-58
2022/10/12 08:33:41;;;;;;;2.90;2.25;;;;;;;18.22;48.96;102365.75;5137986;27;20445;-59
2022/10/12 08:36:07;;;;;;;4.30;2.25;;;;;;;18.40;48.86;102387.56;5128827;27;20501;-59
2022/10/12 08:38:37;;;;;;;4.28;2.50;;;;;;;18.45;48.85;102384.47;5142472;27;20091;-57
2022/10/12 08:41:21;;;;;;;3.17;2.03;;;;;;;18.52;48.61;102396.44;5127771;27;20051;-58
2022/10/12 08:44:08;;;;;;;4.45;2.65;;;;;;;18.53;48.38;102390.06;5137561;27;20027;-59
2022/10/12 08:46:33;;;;;;;3.30;2.10;;;;;;;18.56;48.50;102383.53;5127167;27;20061;-58
2022/10/12 08:49:04;;;;;;;4.00;2.40;;;;;;;18.62;48.66;102377.66;5126451;27;20027;-55
2022/10/12 08:51:30;;;;;;;4.72;2.55;;;;;;;18.66;48.24;102385.34;5131057;27;20035;-57
2022/10/12 08:54:05;;;;;;;3.10;2.30;;;;;;;18.73;48.33;102386.56;5138084;27;20118;-56
2022/10/12 08:56:33;;;;;;;5.25;2.58;;;;;;;18.77;48.38;102387.13;5128219;27;20019;-58
2022/10/12 08:59:00;;;;;;;2.33;2.08;;;;;;;18.83;48.35;102377.69;5137618;27;20027;-59
2022/10/12 09:01:35;;;;;;;4.65;2.55;;;;;;;18.86;47.92;102382.78;5133587;27;20027;-59
2022/10/12 09:04:08;;;;;;;4.20;2.83;;;;;;;18.90;48.04;102379.72;5129765;27;20020;-58
2022/10/12 09:06:37;;;;;;;2.58;2.35;;;;;;;18.94;47.94;102374.91;5144555;27;20076;-55
2022/10/12 09:09:12;;;;;;;3.47;2.42;;;;;;;18.99;47.79;102380.75;5137991;27;20019;-57
2022/10/12 09:11:59;;;;;;;2.95;2.20;;;;;;;19.03;47.82;102379.50;5136343;27;20087;-55
2022/10/12 09:14:27;;;;;;;3.55;2.20;;;;;;;19.08;47.94;102381.81;5136769;27;20038;-57
2022/10/12 09:16:54;;;;;;;3.13;2.33;;;;;;;19.12;47.46;102383.25;5132369;27;20051;-55
2022/10/12 09:19:21;;;;;;;3.38;2.38;;;;;;;19.14;47.76;102384.81;5132134;27;20088;-52
2022/10/12 09:21:47;;;;;;;3.38;2.33;;;;;;;19.17;47.73;102381.00;5131316;27;20058;-55
2022/10/12 09:24:18;;;;;;;3.30;2.28;;;;;;;19.18;47.35;102380.84;5141306;27;20034;-56
2022/10/12 09:26:45;;;;;;;3.38;2.10;;;;;;;19.20;47.65;102380.72;5128812;27;20106;-58
2022/10/12 09:29:22;;;;;;;3.35;2.33;;;;;;;19.21;47.29;102382.44;5118670;27;20076;-59
2022/10/12 09:32:19;;;;;;;3.38;2.25;;;;;;;19.22;47.39;102387.69;5131060;27;20039;-57
2022/10/12 09:34:44;;;;;;;3.95;2.30;;;;;;;19.23;47.58;102381.28;5128559;27;20016;-57
2022/10/12 09:37:21;;;;;;;2.97;2.28;;;;;;;19.23;47.38;102373.19;5136315;27;20035;-59
2022/10/12 09:39:47;;;;;;;3.53;2.08;;;;;;;19.26;47.29;102373.94;5129974;27;20034;-56
2022/10/12 09:42:12;;;;;;;3.03;2.20;;;;;;;19.24;47.43;102374.06;5133726;27;20035;-53
2022/10/12 09:44:46;;;;;;;3.15;2.03;;;;;;;19.25;47.54;102375.78;5127018;27;20031;-59
2022/10/12 09:47:20;;;;;;;3.38;2.50;;;;;;;19.26;47.18;102373.94;5132361;27;20591;-58
2022/10/12 09:49:49;;;;;;;3.42;2.00;;;;;;;19.25;47.43;102367.69;5130707;27;20027;-57
2022/10/12 09:52:16;;;;;;;4.90;2.17;;;;;;;19.01;47.43;102332.94;5123711;28;20026;-54
2022/10/12 09:54:53;;;;;;;2.70;2.30;;;;;;;19.27;47.26;102372.94;5138930;27;20020;-56
2022/10/12 09:57:38;;;;;;;4.10;2.42;;;;;;;19.26;47.42;102365.84;5133332;28;20030;-53
2022/10/12 10:00:28;;;;;;;3.17;2.83;;;;;;;19.25;47.62;102364.16;5126857;28;20111;-53
2022/10/12 10:02:54;;;;;;;3.25;1.95;;;;;;;19.23;47.65;102358.88;5118242;28;20109;-53
2022/10/12 10:05:24;;;;;;;3.67;2.35;;;;;;;19.24;47.51;102357.88;5143212;27;20023;-49
2022/10/12 10:07:50;;;;;;;4.55;2.50;;;;;;;19.25;47.52;102350.66;5138190;27;20058;-53
2022/10/12 10:10:16;;;;;;;4.57;2.83;;;;;;;19.26;47.51;102349.66;5146091;27;20027;-53
2022/10/12 10:12:57;;;;;;;4.63;2.30;;;;;;;19.27;47.77;102354.91;5127390;27;20092;-51
2022/10/12 10:15:26;;;;;;;4.85;2.30;;;;;;;19.26;47.57;102353.22;5130650;27;20042;-54
2022/10/12 10:17:53;;;;;;;;;;;;;;;19.27;47.57;102352.22;5128304;27;20038;-52
2022/10/12 10:20:51;;;;;;;4.45;2.38;;;;;;;19.28;47.81;102355.75;5126785;28;19912;-55
2022/10/12 10:23:48;;;;;;;3.75;2.28;;;;;;;19.28;47.74;102351.22;5120116;28;20043;-51
2022/10/12 10:26:15;;;;;;;3.03;2.03;;;;;;;19.29;47.79;102352.09;5144382;27;20019;-53
2022/10/12 10:28:43;;;;;;;3.05;2.20;;;;;;;19.28;47.67;102351.22;5126838;28;20031;-54
2022/10/12 10:31:11;;;;;;;3.80;2.25;;;;;;;19.29;47.96;102342.16;5125884;27;20034;-54
2022/10/12 10:33:37;;;;;;;4.03;2.40;;;;;;;19.30;47.99;102343.00;5139445;27;20020;-56
2022/10/12 10:36:02;;;;;;;4.30;2.45;;;;;;;19.30;48.12;102338.47;5139256;27;20056;-54
2022/10/12 10:38:31;;;;;;;8.18;3.03;;;;;;;19.31;48.18;102325.84;5128459;27;20037;-55
2022/10/12 10:40:56;;;;;;;3.90;2.27;;;;;;;19.32;48.18;102331.09;5137904;27;20480;-55
2022/10/12 10:43:27;;;;;;;3.47;2.20;;;;;;;19.30;48.11;102316.91;5130495;27;20031;-58
2022/10/12 10:46:01;;;;;;;4.00;2.35;;;;;;;19.34;48.18;102328.28;5140204;27;20061;-52
2022/10/12 10:48:29;;;;;;;3.50;2.30;;;;;;;19.33;48.35;102318.47;5130567;27;20050;-53
2022/10/12 10:51:03;;;;;;;4.20;2.05;;;;;;;19.22;48.25;102305.94;5141113;27;20128;-52
2022/10/12 10:53:51;;;;;;;2.63;2.20;;;;;;;19.34;47.85;102321.03;5126823;28;20075;-55
2022/10/12 10:56:25;;;;;;;4.43;2.40;;;;;;;19.35;48.20;102319.19;5143645;27;20039;-55
2022/10/12 10:58:56;;;;;;;2.97;2.33;;;;;;;19.35;48.40;102316.47;5125002;28;20019;-54
2022/10/12 11:01:25;;;;;;;2.67;2.00;;;;;;;19.35;48.01;102314.63;5136530;27;20030;-56
2022/10/12 11:03:54;;;;;;;5.13;2.35;;;;;;;19.36;48.10;102312.78;5133454;27;20042;-57
2022/10/12 11:06:32;;;;;;;6.30;2.53;;;;;;;19.37;48.04;102312.66;5143162;27;20035;-58
2022/10/12 11:09:02;;;;;;;4.00;2.45;;;;;;;19.38;48.06;102308.97;5139444;27;20015;-57
2022/10/12 11:11:30;;;;;;;3.78;1.95;;;;;;;19.40;48.43;102308.81;5136097;27;20428;-56
2022/10/12 11:13:59;;;;;;;4.32;2.55;;;;;;;19.41;47.97;102297.91;5131891;27;20052;-54
2022/10/12 11:16:52;;;;;;;3.00;2.17;;;;;;;19.42;47.99;102290.69;5128088;27;20115;-51
2022/10/12 11:19:25;;;;;;;8.85;3.95;;;;;;;19.43;48.04;102293.22;5132479;27;20032;-56
2022/10/12 11:21:54;;;;;;;3.00;2.10;;;;;;;19.43;48.46;102287.81;5124291;28;20028;-57
2022/10/12 11:24:22;;;;;;;;;;;;;;;19.45;48.48;102293.06;5125633;28;20039;-51
2022/10/12 11:26:52;;;;;;;3.25;2.25;;;;;;;19.46;48.33;102287.56;5125174;28;19914;-48
2022/10/12 11:29:18;;;;;;;3.88;2.30;;;;;;;19.46;48.46;102289.41;5134096;27;20023;-49
2022/10/12 11:31:50;;;;;;;4.05;2.55;;;;;;;19.45;48.69;102283.16;5133523;27;20054;-53